Weather History for KCOD - February, 2013

Change the Weather History Date:

Thursday, February 28, 2013

  Actual Average Record
Temperature  
Mean Temperature 35 °F -  
Max Temperature 44 °F 46 °F 66 °F (1992)
Min Temperature 26 °F 22 °F -17 °F (1922)
Degree Days  
Heating Degree Days 30    
Moisture  
Dew Point 10 °F    
Average Humidity 36    
Maximum Humidity 43    
Minimum Humidity 24    
Precipitation  
Precipitation 0.00 in - - ()
Sea Level Pressure  
Sea Level Pressure 30.18 in    
Wind  
Wind Speed 11 mph (West)    
Max Wind Speed 17 mph    
Max Gust Speed 28 mph    
Visibility 10 miles    
Events      
Averages and records for this station are not official NWS values.
T = Trace of Precipitation, MM = Missing Value Source: NWS Daily Summary

Daily Weather History Graph

Daily Weather History Graph

Search for Another Location

Airport or City:

Trip Planner

Search our weather history database for the weather conditions in past years. The results will help you decide how hot, cold, wet, or windy it might be!

Date:

Astronomy

Feb. 28, 2013 Rise Set
Actual Time 6:54 AM MST 6:03 PM MST
Civil Twilight 6:25 AM MST 6:32 PM MST
Nautical Twilight 5:51 AM MST 7:06 PM MST
Astronomical Twilight 5:18 AM MST 7:39 PM MST
Moon 9:44 PM MST (2/28) 7:56 AM MST (2/28)
Length of Visible Light 12h 06m
Length of Day
11h 08m
Waning Gibbous, 90% of the Moon is Illuminated
Feb 28
Waning Gibbous
Mar 4
Last Quarter
Mar 11
New
Mar 19
First Quarter
Mar 27
Full

Hourly Weather History & Observations

Time (MST) Temp. Windchill Dew Point Humidity Pressure Visibility Wind Dir Wind Speed Gust Speed Precip Events Conditions
12:15 AM 30.2 °F 21.3 °F 6.8 °F 37% 30.17 in 10.0 mi West 10.4 mph 18.4 mph N/A   Clear
12:35 AM 30.2 °F 21.3 °F 6.8 °F 37% 30.17 in 10.0 mi WNW 10.4 mph 23.0 mph N/A   Clear
12:55 AM 30.2 °F 21.9 °F 6.8 °F 37% 30.17 in 10.0 mi West 9.2 mph 17.3 mph N/A   Partly Cloudy
1:15 AM 30.2 °F 19.8 °F 6.8 °F 37% 30.17 in 10.0 mi West 13.8 mph 19.6 mph N/A   Partly Cloudy
1:35 AM 30.2 °F 18.5 °F 6.8 °F 37% 30.17 in 10.0 mi West 17.3 mph 24.2 mph N/A   Scattered Clouds
1:55 AM 30.2 °F 18.5 °F 6.8 °F 37% 30.17 in 10.0 mi West 17.3 mph 27.6 mph N/A   Partly Cloudy
2:15 AM 30.2 °F 18.9 °F 6.8 °F 37% 30.16 in 10.0 mi West 16.1 mph 25.3 mph N/A   Mostly Cloudy
2:55 AM 30.2 °F - 6.8 °F 37% 30.15 in 10.0 mi North - - N/A   Partly Cloudy
3:35 AM 30.2 °F 19.3 °F 6.8 °F 37% 30.15 in 10.0 mi WSW 15.0 mph 25.3 mph N/A   Clear
3:55 AM 30.2 °F 19.3 °F 6.8 °F 37% 30.15 in 10.0 mi West 15.0 mph 25.3 mph N/A   Clear
4:35 AM 28.4 °F 21.2 °F 5.0 °F 37% 30.16 in 10.0 mi NNW 6.9 mph - N/A   Mostly Cloudy
5:15 AM 28.4 °F 23.3 °F 6.8 °F 40% 30.16 in 10.0 mi NNE 4.6 mph - N/A   Mostly Cloudy
5:35 AM 28.4 °F - 6.8 °F 40% 30.16 in 10.0 mi Calm Calm - N/A   Scattered Clouds
5:55 AM 26.6 °F 20.0 °F 5.0 °F 40% 30.16 in 10.0 mi ESE 5.8 mph - N/A   Mostly Cloudy
6:15 AM 26.6 °F 20.0 °F 6.8 °F 43% 30.16 in 10.0 mi WNW 5.8 mph - N/A   Overcast
6:35 AM 30.2 °F 20.2 °F 6.8 °F 37% 30.17 in 10.0 mi West 12.7 mph 16.1 mph N/A   Overcast
6:55 AM 30.2 °F 20.2 °F 6.8 °F 37% 30.17 in 10.0 mi West 12.7 mph 19.6 mph N/A   Overcast
7:15 AM 30.2 °F 22.6 °F 6.8 °F 37% 30.17 in 10.0 mi West 8.1 mph 18.4 mph N/A   Overcast
7:35 AM 30.2 °F 19.8 °F 6.8 °F 37% 30.17 in 10.0 mi WSW 13.8 mph 21.9 mph N/A   Overcast
7:55 AM 30.2 °F 20.8 °F 8.6 °F 40% 30.17 in 10.0 mi West 11.5 mph 21.9 mph N/A   Overcast
8:15 AM 30.2 °F 20.8 °F 8.6 °F 40% 30.17 in 10.0 mi West 11.5 mph 17.3 mph N/A   Overcast
8:36 AM 32.0 °F 21.2 °F 8.6 °F 38% 30.17 in 10.0 mi West 16.1 mph 25.3 mph N/A   Overcast
8:55 AM 32.0 °F 22.1 °F 8.6 °F 38% 30.18 in 10.0 mi West 13.8 mph 24.2 mph N/A   Overcast
9:15 AM 33.8 °F 24.8 °F 8.6 °F 35% 30.19 in 10.0 mi WNW 12.7 mph 19.6 mph N/A   Overcast
9:35 AM 33.8 °F 27.7 °F 10.4 °F 38% 30.19 in 10.0 mi WNW 6.9 mph - N/A   Overcast
9:55 AM 35.6 °F 27.5 °F 10.4 °F 35% 30.18 in 10.0 mi West 11.5 mph 18.4 mph N/A   Overcast
10:15 AM 35.6 °F 28.6 °F 12.2 °F 38% 30.17 in 10.0 mi West 9.2 mph 20.7 mph N/A   Mostly Cloudy
10:35 AM 35.6 °F 26.6 °F 10.4 °F 35% 30.17 in 10.0 mi West 13.8 mph 20.7 mph N/A   Partly Cloudy
10:55 AM 35.6 °F 26.6 °F 12.2 °F 38% 30.17 in 10.0 mi West 13.8 mph 24.2 mph N/A   Clear
11:15 AM 37.4 °F 29.3 °F 12.2 °F 36% 30.17 in 10.0 mi West 12.7 mph 25.3 mph N/A   Clear
11:35 AM 39.2 °F 31.6 °F 12.2 °F 33% 30.16 in 10.0 mi West 12.7 mph 23.0 mph N/A   Partly Cloudy
11:55 AM 39.2 °F 32.5 °F 12.2 °F 33% 30.16 in 10.0 mi West 10.4 mph 18.4 mph N/A   Scattered Clouds
12:15 PM 39.2 °F 34.2 °F 12.2 °F 33% 30.16 in 10.0 mi West 6.9 mph 19.6 mph N/A   Mostly Cloudy
12:35 PM 39.2 °F 33.6 °F 12.2 °F 33% 30.16 in 10.0 mi NNW 8.1 mph - N/A   Mostly Cloudy
12:55 PM 39.2 °F 37.0 °F 12.2 °F 33% 30.16 in 10.0 mi NNE 3.5 mph - N/A   Mostly Cloudy
1:15 PM 39.2 °F 37.0 °F 12.2 °F 33% 30.15 in 10.0 mi NE 3.5 mph - N/A   Mostly Cloudy
1:35 PM 39.2 °F 35.0 °F 12.2 °F 33% 30.14 in 10.0 mi ENE 5.8 mph - N/A   Mostly Cloudy
1:55 PM 41.0 °F 39.0 °F 14.0 °F 33% 30.14 in 10.0 mi South 3.5 mph - N/A   Partly Cloudy
2:15 PM 42.8 °F 35.8 °F 14.0 °F 31% 30.15 in 10.0 mi West 13.8 mph 23.0 mph N/A   Scattered Clouds
2:35 PM 44.6 °F 38.1 °F 15.8 °F 31% 30.15 in 10.0 mi West 13.8 mph 21.9 mph N/A   Overcast
2:55 PM 44.6 °F 38.8 °F 14.0 °F 29% 30.16 in 10.0 mi WNW 11.5 mph 18.4 mph N/A   Mostly Cloudy
3:15 PM 44.6 °F 37.4 °F 14.0 °F 29% 30.16 in 10.0 mi WNW 16.1 mph 23.0 mph N/A   Partly Cloudy
3:35 PM 42.8 °F 34.8 °F 10.4 °F 27% 30.16 in 10.0 mi NW 17.3 mph 27.6 mph N/A   Clear
4:15 PM 42.8 °F 36.2 °F 8.6 °F 25% 30.15 in 10.0 mi WNW 12.7 mph 26.5 mph N/A   Clear
5:15 PM 41.0 °F 35.8 °F 6.8 °F 24% 30.17 in 10.0 mi WNW 8.1 mph - N/A   Clear
5:35 PM 39.2 °F 33.0 °F 10.4 °F 31% 30.18 in 10.0 mi West 9.2 mph 18.4 mph N/A   Clear
6:15 PM 37.4 °F 33.8 °F 10.4 °F 33% 30.19 in 10.0 mi WSW 4.6 mph - N/A   Clear
6:35 PM 37.4 °F 30.8 °F 10.4 °F 33% 30.20 in 10.0 mi West 9.2 mph - N/A   Clear
6:55 PM 37.4 °F 30.8 °F 10.4 °F 33% 30.21 in 10.0 mi West 9.2 mph - N/A   Clear
7:15 PM 37.4 °F 32.1 °F 12.2 °F 36% 30.21 in 10.0 mi West 6.9 mph - N/A   Clear
7:35 PM 37.4 °F 30.8 °F 12.2 °F 36% 30.22 in 10.0 mi West 9.2 mph - N/A   Clear
7:55 PM 37.4 °F 30.8 °F 12.2 °F 36% 30.22 in 10.0 mi West 9.2 mph 17.3 mph N/A   Clear
8:15 PM 37.4 °F 28.5 °F 12.2 °F 36% 30.22 in 10.0 mi WSW 15.0 mph 24.2 mph N/A   Clear
8:35 PM 37.4 °F 30.3 °F 14.0 °F 38% 30.23 in 10.0 mi West 10.4 mph 21.9 mph N/A   Clear
8:55 PM 37.4 °F 28.2 °F 12.2 °F 36% 30.22 in 10.0 mi WSW 16.1 mph 23.0 mph N/A   Clear
9:15 PM 37.4 °F 29.3 °F 14.0 °F 38% 30.22 in 10.0 mi West 12.7 mph 23.0 mph N/A   Clear
10:15 PM 37.4 °F 30.3 °F 15.8 °F 41% 30.25 in 10.0 mi WNW 10.4 mph 17.3 mph N/A   Partly Cloudy
10:35 PM 35.6 °F 29.9 °F 12.2 °F 38% 30.25 in 10.0 mi WNW 6.9 mph 17.3 mph N/A   Mostly Cloudy
10:55 PM 35.6 °F 28.0 °F 14.0 °F 41% 30.24 in 10.0 mi West 10.4 mph - N/A   Partly Cloudy
11:15 PM 35.6 °F 28.0 °F 14.0 °F 41% 30.23 in 10.0 mi West 10.4 mph 20.7 mph N/A   Clear
11:35 PM 37.4 °F 32.1 °F 15.8 °F 41% 30.22 in 10.0 mi West 6.9 mph - N/A   Clear